createdAt,value
2019-04-03T00:01:10.268Z,2.63
2019-04-03T00:03:37.122Z,2.50
2019-04-03T00:06:05.506Z,2.17
2019-04-03T00:08:32.913Z,2.40
2019-04-03T00:10:59.801Z,2.30
2019-04-03T00:13:26.803Z,2.03
2019-04-03T00:15:53.696Z,2.00
2019-04-03T00:18:20.651Z,2.60
2019-04-03T00:20:48.764Z,2.40
2019-04-03T00:23:16.077Z,2.50
2019-04-03T00:25:43.034Z,2.17
2019-04-03T00:28:09.845Z,2.70
2019-04-03T00:30:36.660Z,2.30
2019-04-03T00:33:03.517Z,2.40
2019-04-03T00:35:30.490Z,1.90
2019-04-03T00:37:57.259Z,2.00
2019-04-03T00:40:24.771Z,2.33
2019-04-03T00:42:54.055Z,1.93
2019-04-03T00:45:20.671Z,1.80
2019-04-03T00:47:47.519Z,2.83
2019-04-03T00:50:14.496Z,2.60
2019-04-03T00:52:41.424Z,2.20
2019-04-03T00:55:08.352Z,2.57
2019-04-03T00:57:35.194Z,2.07
2019-04-03T01:00:02.190Z,1.97
2019-04-03T01:02:29.040Z,2.30
2019-04-03T01:04:57.989Z,1.93
2019-04-03T01:07:24.544Z,2.27
2019-04-03T01:09:51.332Z,2.10
2019-04-03T01:12:18.205Z,2.57
2019-04-03T01:14:45.053Z,2.00
2019-04-03T01:17:11.837Z,1.73
2019-04-03T01:19:38.679Z,1.60
2019-04-03T01:22:07.276Z,2.07
2019-04-03T01:24:34.374Z,2.40
2019-04-03T01:27:01.304Z,2.83
2019-04-03T01:29:28.266Z,1.97
2019-04-03T01:31:55.055Z,2.47
2019-04-03T01:34:21.959Z,2.40
2019-04-03T01:36:48.830Z,1.80
2019-04-03T01:39:15.682Z,2.07
2019-04-03T01:41:42.739Z,1.93
2019-04-03T01:44:09.705Z,2.03
2019-04-03T01:46:36.562Z,1.93
2019-04-03T01:49:03.430Z,2.40
2019-04-03T01:51:30.387Z,1.90
2019-04-03T01:53:57.342Z,2.57
2019-04-03T01:56:24.126Z,2.30
2019-04-03T01:58:51.038Z,2.30
2019-04-03T02:01:17.854Z,2.07
2019-04-03T02:03:44.662Z,1.80
2019-04-03T02:06:13.209Z,2.23
2019-04-03T02:08:40.331Z,2.07
2019-04-03T02:11:07.191Z,2.10
2019-04-03T02:13:34.061Z,1.87
2019-04-03T02:16:00.911Z,2.27
2019-04-03T02:18:27.763Z,2.47
2019-04-03T02:20:57.319Z,1.80
2019-04-03T02:23:23.274Z,2.20
2019-04-03T02:25:50.272Z,2.00
2019-04-03T02:28:17.385Z,2.03
2019-04-03T02:30:46.110Z,1.73
2019-04-03T02:33:12.978Z,1.97
2019-04-03T02:35:40.624Z,1.90
2019-04-03T02:38:08.110Z,1.67
2019-04-03T02:40:35.086Z,1.50
2019-04-03T02:43:01.936Z,2.13
2019-04-03T02:45:28.934Z,1.90
2019-04-03T02:47:55.774Z,2.13
2019-04-03T02:50:22.781Z,2.27
2019-04-03T02:52:49.807Z,1.80
2019-04-03T02:55:16.727Z,1.90
2019-04-03T02:57:43.666Z,1.60
2019-04-03T03:00:10.539Z,2.07
2019-04-03T03:02:37.680Z,2.13
2019-04-03T03:05:04.656Z,1.93
2019-04-03T03:07:35.641Z,2.23
2019-04-03T03:10:00.281Z,2.10
2019-04-03T03:12:27.811Z,2.03
2019-04-03T03:14:55.621Z,1.80
2019-04-03T03:17:23.532Z,1.70
2019-04-03T03:19:50.516Z,2.00
2019-04-03T03:22:18.478Z,1.97
2019-04-03T03:24:46.016Z,1.70
2019-04-03T03:27:12.879Z,2.20
2019-04-03T03:29:39.713Z,1.80
2019-04-03T03:32:15.593Z,1.83
2019-04-03T03:34:51.942Z,1.63
2019-04-03T03:37:04.001Z,1.90
2019-04-03T03:39:31.707Z,1.80
2019-04-03T03:41:59.173Z,1.80
2019-04-03T03:44:26.225Z,2.10
2019-04-03T03:46:53.287Z,1.73
2019-04-03T03:49:20.223Z,2.10
2019-04-03T03:51:47.080Z,1.90
2019-04-03T03:54:16.794Z,1.60
2019-04-03T03:56:42.659Z,1.60
2019-04-03T03:59:09.953Z,1.80
2019-04-03T04:01:37.195Z,2.00
2019-04-03T04:04:04.376Z,2.00
2019-04-03T04:06:35.025Z,1.60
2019-04-03T04:09:00.311Z,1.60
2019-04-03T04:11:28.097Z,1.80
2019-04-03T04:13:55.845Z,2.17
2019-04-03T04:16:22.662Z,1.87
2019-04-03T04:18:49.510Z,1.90
2019-04-03T04:21:16.533Z,1.70
2019-04-03T04:23:44.105Z,1.67
2019-04-03T04:26:11.319Z,2.00
2019-04-03T04:28:40.229Z,2.00
2019-04-03T04:31:07.218Z,1.67
2019-04-03T04:33:34.181Z,1.80
2019-04-03T04:36:01.019Z,2.00
2019-04-03T04:38:27.846Z,1.97
2019-04-03T04:40:54.795Z,2.10
2019-04-03T04:43:21.721Z,1.80
2019-04-03T04:45:48.764Z,1.63
2019-04-03T04:48:16.776Z,2.30
2019-04-03T04:50:44.291Z,1.90
2019-04-03T04:53:11.504Z,2.20
2019-04-03T04:55:39.887Z,1.80
2019-04-03T04:58:07.057Z,2.10
2019-04-03T05:00:33.929Z,2.17
2019-04-03T05:03:02.014Z,2.00
2019-04-03T05:05:31.088Z,1.50
2019-04-03T05:07:59.690Z,1.70
2019-04-03T05:10:26.864Z,1.73
2019-04-03T05:12:53.838Z,1.93
2019-04-03T05:15:23.467Z,1.80
2019-04-03T05:17:50.640Z,2.20
2019-04-03T05:20:19.477Z,1.90
2019-04-03T05:22:46.181Z,2.00
2019-04-03T05:25:13.629Z,1.90
2019-04-03T05:27:40.503Z,2.10
2019-04-03T05:30:07.617Z,1.70
2019-04-03T05:32:34.422Z,1.60
2019-04-03T05:35:01.514Z,3.40
2019-04-03T05:37:28.505Z,5.60
2019-04-03T05:39:55.794Z,3.93
2019-04-03T05:42:23.768Z,3.33
2019-04-03T05:44:50.701Z,3.73
2019-04-03T05:47:17.645Z,3.00
2019-04-03T05:49:46.461Z,3.03
2019-04-03T05:52:14.587Z,3.20
2019-04-03T05:54:44.033Z,3.53
2019-04-03T05:57:11.725Z,3.43
2019-04-03T05:59:39.231Z,3.30
2019-04-03T06:02:14.583Z,2.97
2019-04-03T06:04:34.797Z,2.77
2019-04-03T06:07:01.732Z,3.17
2019-04-03T06:09:29.276Z,2.80
2019-04-03T06:11:56.298Z,2.80
2019-04-03T06:14:24.458Z,2.93
2019-04-03T06:16:51.544Z,3.27
2019-04-03T06:19:18.563Z,3.43
2019-04-03T06:21:46.173Z,3.10
2019-04-03T06:24:13.471Z,2.80
2019-04-03T06:26:40.756Z,4.23
2019-04-03T06:29:08.199Z,3.17
2019-04-03T06:31:35.022Z,3.77
2019-04-03T06:34:01.901Z,3.90
2019-04-03T06:36:30.772Z,3.40
2019-04-03T06:38:58.578Z,3.10
2019-04-03T06:41:25.506Z,3.40
2019-04-03T06:43:54.040Z,2.93
2019-04-03T06:46:21.276Z,3.60
2019-04-03T06:48:55.259Z,3.43
2019-04-03T06:51:21.718Z,3.70
2019-04-03T06:53:48.807Z,3.60
2019-04-03T06:56:15.816Z,3.33
2019-04-03T06:58:44.631Z,3.00
2019-04-03T07:01:11.375Z,3.20
2019-04-03T07:03:38.180Z,3.37
2019-04-03T07:06:05.097Z,3.13
2019-04-03T07:08:35.725Z,2.27
2019-04-03T07:11:00.547Z,3.43
2019-04-03T07:13:29.550Z,3.17
2019-04-03T07:15:56.869Z,3.07
2019-04-03T07:18:23.980Z,3.10
2019-04-03T07:20:51.769Z,3.43
2019-04-03T07:23:19.461Z,3.10
2019-04-03T07:25:46.770Z,2.90
2019-04-03T07:28:13.702Z,3.80
2019-04-03T07:30:40.665Z,2.90
2019-04-03T07:33:07.512Z,3.10
2019-04-03T07:35:34.338Z,3.20
2019-04-03T07:38:01.238Z,2.37
2019-04-03T07:40:28.129Z,2.97
2019-04-03T07:42:56.449Z,2.20
2019-04-03T07:45:23.802Z,2.80
2019-04-03T07:47:50.637Z,2.47
2019-04-03T07:50:20.792Z,2.50
2019-04-03T07:52:48.889Z,2.57
2019-04-03T07:55:15.908Z,2.80
2019-04-03T07:57:42.790Z,2.40
2019-04-03T08:00:09.610Z,2.50
2019-04-03T08:02:36.471Z,2.47
2019-04-03T08:05:04.793Z,2.43
2019-04-03T08:07:31.706Z,2.70
2019-04-03T08:09:59.183Z,2.70
2019-04-03T08:12:26.237Z,2.37
2019-04-03T08:14:53.062Z,2.57
2019-04-03T08:17:20.029Z,3.43
2019-04-03T08:19:47.042Z,2.50
2019-04-03T08:22:13.858Z,2.70
2019-04-03T08:24:42.206Z,2.20
2019-04-03T08:27:09.287Z,2.50
2019-04-03T08:29:39.423Z,2.40
2019-04-03T08:32:06.477Z,2.93
2019-04-03T08:34:33.362Z,2.70
2019-04-03T08:37:01.586Z,2.20
2019-04-03T08:39:29.487Z,2.47
2019-04-03T08:41:57.233Z,2.27
2019-04-03T08:44:24.269Z,2.93
2019-04-03T08:46:51.078Z,2.83
2019-04-03T08:49:18.035Z,2.50
2019-04-03T08:51:44.907Z,2.17
2019-04-03T08:54:11.724Z,2.80
2019-04-03T08:56:38.552Z,2.20
2019-04-03T08:59:05.459Z,2.77
2019-04-03T09:01:32.458Z,2.73
2019-04-03T09:03:59.393Z,2.47
2019-04-03T09:06:26.390Z,2.13
2019-04-03T09:08:53.640Z,2.53
2019-04-03T09:11:20.800Z,2.07
2019-04-03T09:13:47.868Z,2.53
2019-04-03T09:16:14.761Z,2.07
2019-04-03T09:18:42.108Z,2.50
2019-04-03T09:21:09.369Z,2.57
2019-04-03T09:23:36.271Z,2.37
2019-04-03T09:26:03.834Z,2.30
2019-04-03T09:28:30.817Z,2.57
2019-04-03T09:30:57.736Z,2.70
2019-04-03T09:33:25.955Z,2.27
2019-04-03T09:35:54.296Z,2.50
2019-04-03T09:38:21.768Z,2.40
2019-04-03T09:40:48.874Z,2.30
2019-04-03T09:43:15.752Z,2.73
2019-04-03T09:45:42.702Z,2.20
2019-04-03T09:48:11.771Z,2.50
2019-04-03T09:50:38.171Z,2.73
2019-04-03T09:53:05.118Z,2.27
2019-04-03T09:55:35.917Z,2.53
2019-04-03T09:58:00.964Z,2.60
2019-04-03T10:00:29.361Z,2.20
2019-04-03T10:02:56.391Z,2.37
2019-04-03T10:05:23.309Z,2.20
2019-04-03T10:07:50.321Z,2.17
2019-04-03T10:10:17.350Z,2.20
2019-04-03T10:12:47.302Z,2.17
2019-04-03T10:15:12.960Z,2.60
2019-04-03T10:17:39.830Z,2.90
2019-04-03T10:20:06.887Z,3.50
2019-04-03T10:22:33.758Z,2.70
2019-04-03T10:25:02.591Z,2.60
2019-04-03T10:27:29.236Z,2.50
2019-04-03T10:29:56.529Z,2.13
2019-04-03T10:32:26.823Z,2.70
2019-04-03T10:34:52.317Z,2.30
2019-04-03T10:37:19.126Z,2.40
2019-04-03T10:39:46.327Z,2.27
2019-04-03T10:42:13.477Z,2.47
2019-04-03T10:44:40.359Z,2.60
2019-04-03T10:47:07.252Z,2.90
2019-04-03T10:49:34.069Z,2.47
2019-04-03T10:52:00.899Z,2.77
2019-04-03T10:54:27.750Z,3.37
2019-04-03T10:56:54.570Z,4.00
2019-04-03T10:59:21.514Z,3.30
2019-04-03T11:01:48.415Z,3.77
2019-04-03T11:04:15.404Z,3.30
2019-04-03T11:06:42.602Z,3.20
2019-04-03T11:09:10.283Z,2.87
2019-04-03T11:11:37.718Z,3.10
2019-04-03T11:14:06.679Z,3.53
2019-04-03T11:16:33.397Z,2.40
2019-04-03T11:19:04.680Z,3.00
2019-04-03T11:21:28.915Z,3.23
2019-04-03T11:23:55.893Z,3.20
2019-04-03T11:26:24.856Z,3.60
2019-04-03T11:28:51.564Z,2.73
2019-04-03T11:31:25.769Z,3.90
2019-04-03T11:33:50.137Z,3.40
2019-04-03T11:36:15.679Z,3.10
2019-04-03T11:38:42.502Z,4.90
2019-04-03T11:41:14.471Z,3.10
2019-04-03T11:43:39.812Z,3.10
2019-04-03T11:46:10.548Z,4.70
2019-04-03T11:48:37.997Z,3.63
2019-04-03T11:51:05.337Z,3.07
2019-04-03T11:53:34.597Z,4.13
2019-04-03T11:56:01.155Z,3.40
2019-04-03T11:58:28.751Z,3.83
2019-04-03T12:03:44.502Z,3.70
2019-04-03T12:06:11.461Z,5.03
2019-04-03T12:08:38.479Z,3.17
2019-04-03T12:11:06.620Z,4.47
2019-04-03T12:13:34.382Z,3.33
2019-04-03T12:16:01.570Z,3.90
2019-04-03T12:18:34.112Z,4.30
2019-04-03T12:21:01.100Z,4.07
2019-04-03T12:23:28.109Z,4.50
2019-04-03T12:25:55.119Z,4.00
2019-04-03T12:28:22.197Z,4.30
2019-04-03T12:30:49.235Z,4.50
2019-04-03T12:33:16.301Z,3.57
2019-04-03T12:35:43.986Z,3.97
2019-04-03T12:38:11.377Z,4.40
2019-04-03T12:40:38.939Z,3.33
2019-04-03T12:43:06.530Z,3.50
2019-04-03T12:45:33.686Z,3.10
2019-04-03T12:48:01.025Z,3.60
2019-04-03T12:50:28.781Z,4.07
2019-04-03T12:52:56.170Z,3.40
2019-04-03T12:55:25.955Z,3.90
2019-04-03T12:57:52.249Z,3.70
2019-04-03T13:00:19.388Z,3.60
2019-04-03T13:02:46.895Z,4.20
2019-04-03T13:05:14.245Z,3.70
2019-04-03T13:07:41.576Z,3.70
2019-04-03T13:10:08.794Z,3.67
2019-04-03T13:12:35.948Z,3.60
2019-04-03T13:15:05.110Z,3.77
2019-04-03T13:17:32.301Z,3.20
2019-04-03T13:20:03.387Z,4.40
2019-04-03T13:22:28.714Z,3.47
2019-04-03T13:24:55.871Z,3.87
2019-04-03T13:27:22.869Z,3.13
2019-04-03T13:29:50.231Z,3.40
2019-04-03T13:32:17.931Z,3.30
2019-04-03T13:34:45.450Z,3.30
2019-04-03T13:37:12.515Z,3.20
2019-04-03T13:39:39.758Z,2.97
2019-04-03T13:42:07.276Z,3.30
2019-04-03T13:44:34.382Z,3.77
2019-04-03T13:47:01.397Z,3.40
2019-04-03T13:49:30.208Z,3.27
2019-04-03T13:52:01.663Z,2.90
2019-04-03T13:54:26.865Z,3.77
2019-04-03T13:56:54.473Z,2.93
2019-04-03T13:59:23.005Z,3.23
2019-04-03T14:01:50.381Z,3.50
2019-04-03T14:04:17.556Z,2.80
2019-04-03T14:06:44.590Z,3.20
2019-04-03T14:09:11.815Z,3.23
2019-04-03T14:11:39.141Z,3.40
2019-04-03T14:14:06.466Z,2.77
2019-04-03T14:16:35.425Z,3.07
2019-04-03T14:19:02.526Z,2.43
2019-04-03T14:21:29.627Z,2.70
2019-04-03T14:23:56.865Z,2.87
2019-04-03T14:26:24.054Z,3.07
2019-04-03T14:28:51.082Z,4.40
2019-04-03T14:31:18.681Z,3.70
2019-04-03T14:33:47.020Z,4.00
2019-04-03T14:36:16.133Z,3.93
2019-04-03T14:38:43.284Z,4.07
2019-04-03T14:41:11.000Z,3.83
2019-04-03T14:44:01.948Z,4.57
2019-04-03T14:46:28.261Z,3.10
2019-04-03T14:48:58.560Z,4.80
2019-04-03T14:51:25.581Z,2.80
2019-04-03T14:53:53.478Z,3.40
2019-04-03T14:56:20.720Z,2.90
2019-04-03T14:58:48.393Z,3.27
2019-04-03T15:01:35.301Z,2.57
2019-04-03T15:04:02.291Z,3.30
2019-04-03T15:06:30.046Z,3.30
2019-04-03T15:08:57.449Z,3.10
2019-04-03T15:11:24.271Z,4.10
2019-04-03T15:13:51.593Z,2.93
2019-04-03T15:16:18.460Z,4.10
2019-04-03T15:18:45.934Z,3.37
2019-04-03T15:21:13.238Z,3.40
2019-04-03T15:23:41.955Z,2.83
2019-04-03T15:26:09.095Z,3.00
2019-04-03T15:28:36.113Z,2.70
2019-04-03T15:31:03.087Z,2.50
2019-04-03T15:33:30.035Z,3.33
2019-04-03T15:35:56.876Z,2.93
2019-04-03T15:38:23.822Z,2.93
2019-04-03T15:40:51.062Z,3.37
2019-04-03T15:43:18.043Z,2.37
2019-04-03T15:45:44.906Z,2.80
2019-04-03T15:48:11.740Z,2.90
2019-04-03T15:50:39.084Z,2.53
2019-04-03T15:53:09.468Z,3.17
2019-04-03T15:55:37.964Z,2.77
2019-04-03T15:58:05.191Z,2.17
2019-04-03T16:00:34.889Z,2.97
2019-04-03T16:03:05.458Z,2.80
2019-04-03T16:05:35.664Z,2.20
2019-04-03T16:08:01.016Z,2.90
2019-04-03T16:10:28.076Z,2.73
2019-04-03T16:12:54.949Z,2.20
2019-04-03T16:15:22.744Z,2.73
2019-04-03T16:17:50.767Z,3.37
2019-04-03T16:20:18.310Z,2.40
2019-04-03T16:22:45.276Z,2.10
2019-04-03T16:25:12.350Z,2.43
2019-04-03T16:27:39.246Z,2.57
2019-04-03T16:30:09.697Z,3.07
2019-04-03T16:32:36.746Z,2.60
2019-04-03T16:35:06.562Z,2.50
2019-04-03T16:37:33.616Z,2.53
2019-04-03T16:40:04.141Z,2.70
2019-04-03T16:42:29.666Z,2.33
2019-04-03T16:44:57.784Z,2.30
2019-04-03T16:47:27.539Z,2.13
2019-04-03T16:49:54.875Z,2.47
2019-04-03T16:52:22.670Z,2.47
2019-04-03T16:54:49.639Z,1.93
2019-04-03T16:57:16.679Z,2.30
2019-04-03T16:59:43.856Z,2.57
2019-04-03T17:02:11.044Z,2.67
2019-04-03T17:04:38.655Z,2.67
2019-04-03T17:07:05.653Z,1.90
2019-04-03T17:09:34.820Z,2.43
2019-04-03T17:12:01.294Z,2.40
2019-04-03T17:14:28.600Z,2.23
2019-04-03T17:16:56.208Z,1.70
2019-04-03T17:19:23.481Z,1.93
2019-04-03T17:21:50.433Z,1.90
2019-04-03T17:24:17.801Z,2.30
2019-04-03T17:26:50.373Z,1.90
2019-04-03T17:29:15.026Z,2.50
2019-04-03T17:31:42.457Z,2.53
2019-04-03T17:34:09.271Z,2.50
2019-04-03T17:36:36.801Z,2.23
2019-04-03T17:39:06.690Z,2.10
2019-04-03T17:41:33.743Z,2.40
2019-04-03T17:44:00.710Z,2.40
2019-04-03T17:46:27.994Z,2.40
2019-04-03T17:48:55.550Z,2.00
2019-04-03T17:51:22.856Z,1.97
2019-04-03T17:53:49.858Z,1.73
2019-04-03T17:56:16.664Z,2.07
2019-04-03T17:58:43.671Z,2.17
2019-04-03T18:01:10.574Z,1.77
2019-04-03T18:03:37.447Z,2.40
2019-04-03T18:06:04.262Z,2.10
2019-04-03T18:08:38.705Z,2.00
2019-04-03T18:11:16.566Z,2.23
2019-04-03T18:13:44.821Z,4.43
2019-04-03T18:16:13.278Z,2.47
2019-04-03T18:19:00.570Z,2.80
2019-04-03T18:21:29.633Z,3.13
2019-04-03T18:23:56.702Z,2.60
2019-04-03T18:26:23.615Z,2.23
2019-04-03T18:28:50.809Z,2.17
2019-04-03T18:31:17.644Z,2.80
2019-04-03T18:33:44.463Z,4.00
2019-04-03T18:36:11.319Z,2.40
2019-04-03T18:38:38.543Z,2.10
2019-04-03T18:41:05.999Z,3.00
2019-04-03T18:43:32.828Z,2.33
2019-04-03T18:46:00.188Z,2.33
2019-04-03T18:48:27.234Z,2.50
2019-04-03T18:50:54.057Z,2.10
2019-04-03T18:53:20.875Z,2.43
2019-04-03T18:55:47.732Z,2.47
2019-04-03T18:58:14.594Z,2.23
2019-04-03T19:00:41.464Z,2.57
2019-04-03T19:03:08.352Z,2.83
2019-04-03T19:05:35.202Z,2.30
2019-04-03T19:08:12.387Z,2.80
2019-04-03T19:10:30.664Z,2.50
2019-04-03T19:12:58.294Z,2.70
2019-04-03T19:15:25.300Z,2.60
2019-04-03T19:17:59.942Z,2.50
2019-04-03T19:20:20.757Z,2.23
2019-04-03T19:22:47.675Z,2.57
2019-04-03T19:25:14.563Z,2.70
2019-04-03T19:27:41.506Z,2.17
2019-04-03T19:30:09.882Z,2.20
2019-04-03T19:32:36.910Z,2.00
2019-04-03T19:35:05.221Z,2.27
2019-04-03T19:37:34.116Z,2.27
2019-04-03T19:40:01.593Z,2.40
2019-04-03T19:42:28.740Z,2.30
2019-04-03T19:44:55.623Z,2.80
2019-04-03T19:47:24.369Z,2.30
2019-04-03T19:49:51.179Z,2.47
2019-04-03T19:52:18.046Z,2.47
2019-04-03T19:54:44.961Z,2.63
2019-04-03T19:57:11.941Z,2.30
2019-04-03T19:59:39.023Z,3.00
2019-04-03T20:02:06.012Z,2.20
2019-04-03T20:04:32.843Z,2.43
2019-04-03T20:06:59.782Z,2.37
2019-04-03T20:09:27.033Z,2.07
2019-04-03T20:11:53.966Z,2.10
2019-04-03T20:14:20.889Z,2.83
2019-04-03T20:16:47.758Z,2.00
2019-04-03T20:19:14.655Z,2.50
2019-04-03T20:21:41.512Z,2.40
2019-04-03T20:24:08.398Z,2.20
2019-04-03T20:26:35.260Z,3.40
2019-04-03T20:29:02.527Z,2.87
2019-04-03T20:31:29.523Z,3.00
2019-04-03T20:33:56.349Z,2.27
2019-04-03T20:36:23.267Z,2.70
2019-04-03T20:38:50.110Z,2.20
2019-04-03T20:41:16.972Z,2.57
2019-04-03T20:43:47.158Z,2.10
2019-04-03T20:46:12.474Z,2.80
2019-04-03T20:48:39.303Z,2.40
2019-04-03T20:51:08.741Z,2.00
2019-04-03T20:53:34.791Z,2.40
2019-04-03T20:56:01.716Z,2.47
2019-04-03T20:58:28.546Z,1.97
2019-04-03T21:01:06.118Z,2.40
2019-04-03T21:03:24.125Z,1.90
2019-04-03T21:05:51.008Z,1.93
2019-04-03T21:08:18.074Z,1.77
2019-04-03T21:10:44.908Z,2.60
2019-04-03T21:13:11.736Z,2.13
2019-04-03T21:15:38.598Z,2.43
2019-04-03T21:18:05.457Z,2.37
2019-04-03T21:20:32.390Z,2.40
2019-04-03T21:22:59.489Z,4.40
2019-04-03T21:25:28.117Z,2.47
2019-04-03T21:27:55.006Z,2.60
2019-04-03T21:30:23.718Z,2.30
2019-04-03T21:32:50.508Z,2.27
2019-04-03T21:35:17.410Z,2.23
2019-04-03T21:37:44.229Z,2.10
2019-04-03T21:40:11.114Z,2.60
2019-04-03T21:42:38.027Z,2.90
2019-04-03T21:45:07.247Z,3.00
2019-04-03T21:47:33.610Z,2.40
2019-04-03T21:50:03.446Z,2.13
2019-04-03T21:52:29.251Z,2.27
2019-04-03T21:54:58.394Z,2.80
2019-04-03T21:57:24.919Z,2.53
2019-04-03T21:59:51.768Z,2.13
2019-04-03T22:02:18.621Z,2.40
2019-04-03T22:04:45.663Z,2.30
2019-04-03T22:07:12.636Z,2.00
2019-04-03T22:09:39.945Z,2.07
2019-04-03T22:12:06.990Z,2.00
2019-04-03T22:14:33.810Z,2.00
2019-04-03T22:17:00.865Z,2.20
2019-04-03T22:19:28.214Z,2.00
2019-04-03T22:21:55.086Z,2.50
2019-04-03T22:24:22.183Z,1.87
2019-04-03T22:26:49.024Z,2.00
2019-04-03T22:29:15.868Z,2.00
2019-04-03T22:31:42.811Z,2.17
2019-04-03T22:34:09.682Z,2.07
2019-04-03T22:36:36.490Z,2.20
2019-04-03T22:39:07.705Z,2.10
2019-04-03T22:41:33.585Z,1.70
2019-04-03T22:44:00.512Z,1.90
2019-04-03T22:46:27.341Z,1.93
2019-04-03T22:48:54.148Z,2.30
2019-04-03T22:51:21.012Z,2.90
2019-04-03T22:53:47.874Z,2.20
2019-04-03T22:56:16.743Z,2.37
2019-04-03T22:58:43.571Z,2.03
2019-04-03T23:01:10.459Z,2.10
2019-04-03T23:03:37.397Z,1.90
2019-04-03T23:06:04.301Z,2.60
2019-04-03T23:08:31.194Z,2.07
2019-04-03T23:11:00.679Z,1.80
2019-04-03T23:13:26.896Z,1.93
2019-04-03T23:15:53.822Z,2.10
2019-04-03T23:18:20.827Z,1.80
2019-04-03T23:20:47.670Z,2.73
2019-04-03T23:23:14.549Z,2.50
2019-04-03T23:25:41.510Z,3.67
2019-04-03T23:28:08.575Z,2.80
2019-04-03T23:30:35.414Z,3.60
2019-04-03T23:33:02.329Z,4.60
2019-04-03T23:35:29.307Z,3.73
2019-04-03T23:37:56.418Z,3.83
2019-04-03T23:40:23.397Z,4.17
2019-04-03T23:42:50.273Z,4.30
2019-04-03T23:45:18.175Z,3.83
2019-04-03T23:47:47.035Z,3.40
2019-04-03T23:50:14.074Z,3.20
2019-04-03T23:52:41.011Z,3.70
2019-04-03T23:55:07.938Z,4.00
2019-04-03T23:57:34.901Z,3.93
